Time;durP1;ratioP1;P1;durP2;ratioP2;P2;SDS_P1;SDS_P2;PMS_P1;PMS_P2;Temp;Humidity;BMP_temperature;BMP_pressure;BME280_temperature;BME280_humidity;BME280_pressure;Samples;Min_cycle;Max_cycle;Signal;HPM_P1;HPM_P2
2022/08/25 00:01:54;;;;;;;10.38;7.60;;;;;;;20.21;78.67;94790.94;5096964;28;20261;-67
2022/08/25 00:04:21;;;;;;;15.13;7.85;;;;;;;20.21;78.36;94788.16;5097868;28;20180;-67
2022/08/25 00:06:48;;;;;;;11.05;7.95;;;;;;;20.19;78.85;94788.59;5097227;28;20215;-66
2022/08/25 00:09:18;;;;;;;15.00;8.07;;;;;;;20.14;78.98;94794.63;5097594;28;20197;-68
2022/08/25 00:11:48;;;;;;;10.88;7.07;;;;;;;20.13;79.24;94793.06;5097584;28;20181;-68
2022/08/25 00:14:19;;;;;;;14.63;7.95;;;;;;;20.14;79.10;94791.06;5097380;28;20213;-67
2022/08/25 00:16:47;;;;;;;9.70;7.38;;;;;;;20.13;79.59;94793.06;5096787;28;20204;-67
2022/08/25 00:19:17;;;;;;;11.38;8.07;;;;;;;20.13;79.31;94790.25;5096697;28;20206;-67
2022/08/25 00:21:45;;;;;;;12.70;7.10;;;;;;;20.11;79.38;94792.69;5096444;28;20192;-67
2022/08/25 00:24:14;;;;;;;11.07;7.28;;;;;;;20.11;79.53;94789.09;5097342;28;20187;-67
2022/08/25 00:26:42;;;;;;;12.38;6.90;;;;;;;20.11;79.96;94784.28;5097163;28;20516;-67
2022/08/25 00:29:11;;;;;;;12.98;7.78;;;;;;;20.12;79.89;94776.69;5097267;28;20197;-67
2022/08/25 00:31:40;;;;;;;11.15;7.72;;;;;;;20.10;79.92;94777.09;5097219;28;20203;-67
2022/08/25 00:34:10;;;;;;;12.38;8.35;;;;;;;20.11;80.00;94770.28;5096710;28;20212;-67
2022/08/25 00:36:37;;;;;;;12.02;8.15;;;;;;;20.10;79.83;94774.31;5097439;28;20184;-67
2022/08/25 00:39:05;;;;;;;11.07;7.60;;;;;;;20.07;79.97;94779.94;5096594;28;20237;-67
2022/08/25 00:41:34;;;;;;;12.80;7.65;;;;;;;20.06;80.00;94778.38;5096151;28;20188;-67
2022/08/25 00:44:05;;;;;;;11.13;7.30;;;;;;;20.04;79.83;94775.97;5096896;28;20192;-67
2022/08/25 00:46:36;;;;;;;12.15;7.75;;;;;;;20.03;79.88;94779.22;5097031;28;20200;-67
2022/08/25 00:49:06;;;;;;;11.98;6.65;;;;;;;19.99;79.85;94779.25;5096613;28;20184;-66
2022/08/25 00:51:37;;;;;;;16.33;8.00;;;;;;;19.97;80.17;94792.88;5096540;28;20251;-67
2022/08/25 00:54:05;;;;;;;11.73;7.53;;;;;;;19.92;80.42;94788.53;5096647;28;20216;-67
2022/08/25 00:56:33;;;;;;;12.18;7.28;;;;;;;19.90;80.66;94790.19;5096804;28;20249;-66
2022/08/25 00:59:00;;;;;;;10.05;7.05;;;;;;;19.91;80.34;94789.75;5095866;28;20206;-66
2022/08/25 01:01:29;;;;;;;9.05;7.10;;;;;;;19.93;80.77;94789.31;5096420;28;20196;-66
2022/08/25 01:03:56;;;;;;;12.68;6.55;;;;;;;19.94;80.54;94790.94;5095492;28;20201;-67
2022/08/25 01:06:24;;;;;;;10.75;7.20;;;;;;;19.95;79.40;94778.53;5096573;28;20193;-66
2022/08/25 01:08:52;;;;;;;11.88;7.35;;;;;;;20.00;79.19;94768.84;5096647;28;20184;-69
2022/08/25 01:11:22;;;;;;;12.55;6.55;;;;;;;19.98;79.21;94760.88;5095185;28;20639;-68
2022/08/25 01:13:54;;;;;;;12.27;6.65;;;;;;;19.99;78.59;94762.47;5095110;28;20202;-68
2022/08/25 01:16:25;;;;;;;13.57;7.20;;;;;;;19.96;78.73;94754.91;5096411;28;20185;-67
2022/08/25 01:18:55;;;;;;;10.57;7.05;;;;;;;19.98;78.84;94754.50;5095550;28;20184;-68
2022/08/25 01:21:26;;;;;;;10.60;6.85;;;;;;;20.02;78.75;94758.81;5095502;28;20231;-68
2022/08/25 01:23:52;;;;;;;11.57;6.80;;;;;;;20.02;78.69;94755.25;5095852;28;20189;-67
2022/08/25 01:26:22;;;;;;;14.23;7.10;;;;;;;20.01;78.66;94765.66;5096043;28;20296;-68
2022/08/25 01:31:31;;;;;;;8.45;6.90;;;;;;;20.01;78.90;94757.25;5078466;28;20614;-67
2022/08/25 01:33:58;;;;;;;12.68;6.53;;;;;;;20.03;78.04;94757.59;5095946;28;20188;-67
2022/08/25 01:36:28;;;;;;;11.88;7.03;;;;;;;20.06;78.02;94759.56;5096017;28;20185;-67
2022/08/25 01:38:55;;;;;;;13.43;7.10;;;;;;;20.04;78.26;94766.78;5096004;28;20185;-68
2022/08/25 01:41:31;;;;;;;10.50;7.05;;;;;;;20.08;77.87;94768.34;5094954;28;20207;-66
2022/08/25 01:44:01;;;;;;;9.82;7.03;;;;;;;20.09;78.04;94758.72;5095513;28;20184;-66
2022/08/25 01:46:30;;;;;;;7.95;6.40;;;;;;;20.10;78.20;94757.50;5094572;28;20246;-67
2022/08/25 01:48:56;;;;;;;9.52;6.97;;;;;;;20.12;78.46;94754.31;5094988;28;20207;-69
2022/08/25 01:51:26;;;;;;;10.52;6.60;;;;;;;20.13;78.69;94753.06;5094841;28;20231;-69
2022/08/25 01:53:53;;;;;;;9.25;6.05;;;;;;;20.15;78.48;94754.25;5094789;28;20192;-69
2022/08/25 01:56:23;;;;;;;15.13;6.82;;;;;;;20.18;77.51;94749.78;5095325;28;20220;-69
2022/08/25 01:58:50;;;;;;;12.23;6.72;;;;;;;20.21;77.27;94751.75;5095474;28;20194;-68
2022/08/25 02:01:22;;;;;;;11.70;6.45;;;;;;;20.22;77.47;94758.13;5094816;28;20196;-68
2022/08/25 02:03:54;;;;;;;9.25;6.47;;;;;;;20.20;78.22;94752.97;5095518;28;20195;-66
2022/08/25 02:06:25;;;;;;;11.68;6.80;;;;;;;20.22;77.79;94752.53;5095345;28;20611;-67
2022/08/25 02:08:56;;;;;;;11.43;6.47;;;;;;;20.24;77.86;94752.91;5078026;28;20200;-66
2022/08/25 02:11:23;;;;;;;10.35;6.47;;;;;;;20.27;77.52;94749.28;5094583;28;20604;-66
2022/08/25 02:13:50;;;;;;;10.80;6.75;;;;;;;20.27;77.51;94750.06;5095471;28;20219;-66
2022/08/25 02:16:24;;;;;;;12.77;7.05;;;;;;;20.27;77.48;94749.28;5095317;28;20204;-67
2022/08/25 02:18:51;;;;;;;10.02;6.75;;;;;;;20.26;77.70;94754.09;5094451;28;20226;-67
2022/08/25 02:21:20;;;;;;;11.45;7.07;;;;;;;20.28;77.34;94748.84;5094374;28;20196;-67
2022/08/25 02:23:47;;;;;;;10.95;6.18;;;;;;;20.33;76.74;94753.94;5095282;28;20185;-67
2022/08/25 02:26:17;;;;;;;9.88;5.75;;;;;;;20.33;76.81;94750.34;5095359;28;20196;-67
2022/08/25 02:28:44;;;;;;;13.93;6.45;;;;;;;20.34;76.63;94749.16;5094635;28;20617;-67
2022/08/25 02:31:12;;;;;;;13.52;6.97;;;;;;;20.34;76.61;94735.16;5094480;28;20200;-67
2022/08/25 02:33:41;;;;;;;13.85;7.60;;;;;;;20.30;76.85;94738.03;5095406;28;20185;-67
2022/08/25 02:36:09;;;;;;;11.30;6.10;;;;;;;20.30;76.86;94740.00;5093964;28;20253;-67
2022/08/25 02:38:36;;;;;;;10.80;6.28;;;;;;;20.33;76.58;94747.56;5094765;28;20613;-67
2022/08/25 02:41:10;;;;;;;12.05;6.40;;;;;;;20.32;77.16;94740.38;5094212;28;20204;-67
2022/08/25 02:43:40;;;;;;;10.77;6.22;;;;;;;20.33;77.00;94737.16;5095220;28;20257;-66
2022/08/25 02:46:07;;;;;;;11.48;5.85;;;;;;;20.33;77.23;94744.75;5094174;28;20211;-67
2022/08/25 02:48:34;;;;;;;10.82;6.35;;;;;;;20.32;76.90;94749.56;5094817;28;20196;-69
2022/08/25 02:51:02;;;;;;;12.68;6.45;;;;;;;20.34;76.89;94746.38;5094986;28;20236;-69
2022/08/25 02:53:30;;;;;;;12.90;7.15;;;;;;;20.31;77.11;94744.41;5094806;28;20188;-68
2022/08/25 02:55:58;;;;;;;11.57;6.28;;;;;;;20.29;77.46;94747.63;5094098;28;20261;-67
2022/08/25 02:58:26;;;;;;;8.75;6.70;;;;;;;20.30;76.99;94740.81;5097781;28;20203;-67
2022/08/25 03:00:55;;;;;;;11.55;6.18;;;;;;;20.34;76.99;94749.97;5099011;28;20203;-67
2022/08/25 03:03:25;;;;;;;10.18;6.38;;;;;;;20.35;77.30;94757.13;5098999;28;20197;-66
2022/08/25 03:05:51;;;;;;;13.07;6.95;;;;;;;20.37;76.76;94763.13;5099121;28;20185;-67
2022/08/25 03:08:18;;;;;;;8.93;7.13;;;;;;;20.36;77.47;94747.50;5098145;28;20193;-67
2022/08/25 03:10:45;;;;;;;8.75;6.50;;;;;;;20.35;77.63;94762.72;5098114;28;20192;-67
2022/08/25 03:13:12;;;;;;;11.50;6.00;;;;;;;20.35;77.75;94750.75;5098837;28;20195;-67
2022/08/25 03:15:41;;;;;;;12.05;6.53;;;;;;;20.35;78.13;94756.34;5098666;28;20205;-67
2022/08/25 03:18:12;;;;;;;9.85;6.45;;;;;;;20.34;78.04;94757.56;5098262;28;20208;-67
2022/08/25 03:20:40;;;;;;;11.38;7.28;;;;;;;20.32;78.22;94751.59;5098357;28;20227;-67
2022/08/25 03:23:07;;;;;;;14.32;7.53;;;;;;;20.32;77.72;94749.56;5098199;28;20185;-67
2022/08/25 03:28:19;;;;;;;11.82;7.65;;;;;;;20.29;77.87;94747.63;5098561;28;20189;-67
2022/08/25 03:30:46;;;;;;;10.65;7.70;;;;;;;20.30;78.10;94752.03;5098046;28;20215;-68
2022/08/25 03:33:14;;;;;;;8.70;6.93;;;;;;;20.32;77.62;94757.19;5098089;28;20619;-67
2022/08/25 03:35:41;;;;;;;14.52;7.70;;;;;;;20.33;78.07;94753.16;5097954;28;20543;-66
2022/08/25 03:38:07;;;;;;;11.85;7.13;;;;;;;20.33;77.67;94756.75;5098290;28;20188;-66
2022/08/25 03:40:34;;;;;;;12.50;7.22;;;;;;;20.37;77.25;94754.72;5098380;28;20204;-66
2022/08/25 03:43:02;;;;;;;8.93;6.50;;;;;;;20.37;77.18;94756.69;5097841;28;20185;-66
2022/08/25 03:45:29;;;;;;;11.77;7.30;;;;;;;20.36;77.38;94753.09;5097507;28;20211;-66
2022/08/25 03:47:56;;;;;;;11.25;6.55;;;;;;;20.35;78.02;94759.16;5098052;28;20189;-66
2022/08/25 03:50:25;;;;;;;11.95;7.18;;;;;;;20.32;77.90;94755.19;5096611;28;20259;-66
2022/08/25 03:52:54;;;;;;;12.93;6.65;;;;;;;20.30;77.70;94752.03;5097741;28;20596;-66
2022/08/25 03:55:21;;;;;;;8.77;6.60;;;;;;;20.28;77.99;94748.84;5097879;28;20201;-66
2022/08/25 03:57:48;;;;;;;12.95;6.53;;;;;;;20.26;78.29;94742.88;5097684;28;20180;-66
2022/08/25 04:00:15;;;;;;;13.65;6.53;;;;;;;20.22;78.55;94750.53;5096995;28;20201;-66
2022/08/25 04:02:42;;;;;;;12.13;7.03;;;;;;;20.21;78.27;94746.16;5097265;28;20203;-68
2022/08/25 04:05:10;;;;;;;9.55;7.15;;;;;;;20.23;78.55;94743.72;5096887;28;20199;-67
2022/08/25 04:07:38;;;;;;;11.65;6.78;;;;;;;20.24;78.01;94742.50;5096800;28;20197;-67
2022/08/25 04:10:06;;;;;;;10.15;7.38;;;;;;;20.27;77.80;94747.25;5096517;28;20185;-67
2022/08/25 04:12:32;;;;;;;9.55;7.35;;;;;;;20.27;77.61;94740.88;5097619;28;20176;-67
2022/08/25 04:15:02;;;;;;;12.32;7.15;;;;;;;20.27;77.57;94738.88;5096299;28;20196;-68
2022/08/25 04:17:29;;;;;;;9.95;7.00;;;;;;;20.30;77.04;94743.63;5096745;28;20576;-68
2022/08/25 04:19:56;;;;;;;12.82;8.05;;;;;;;20.34;76.54;94738.75;5096553;28;20207;-68
2022/08/25 04:22:23;;;;;;;11.32;7.30;;;;;;;20.35;77.39;94739.53;5097417;28;20188;-68
2022/08/25 04:24:51;;;;;;;10.65;7.03;;;;;;;20.34;77.07;94746.38;5097131;28;20181;-68
2022/08/25 04:27:19;;;;;;;11.15;6.80;;;;;;;20.33;77.14;94742.75;5096300;28;20211;-68
2022/08/25 04:29:45;;;;;;;11.40;7.60;;;;;;;20.34;77.59;94733.16;5097297;28;20193;-68
2022/08/25 04:32:12;;;;;;;11.43;7.88;;;;;;;20.37;77.24;94737.09;5097210;28;20192;-68
2022/08/25 04:34:40;;;;;;;10.55;7.57;;;;;;;20.37;77.99;94729.50;5097583;28;20189;-68
2022/08/25 04:37:07;;;;;;;11.32;8.63;;;;;;;20.39;77.31;94726.28;5097032;28;20223;-68
2022/08/25 04:39:35;;;;;;;12.25;10.77;;;;;;;20.39;77.31;94731.88;5096305;28;20196;-68
2022/08/25 04:42:05;;;;;;;12.23;10.05;;;;;;;20.38;77.32;94738.69;5096723;28;20644;-68
2022/08/25 04:44:32;;;;;;;16.52;10.05;;;;;;;20.40;77.38;94744.66;5096832;28;20208;-68
2022/08/25 04:47:01;;;;;;;12.85;10.23;;;;;;;20.41;77.37;94743.44;5096890;28;20207;-68
2022/08/25 04:49:28;;;;;;;16.60;10.25;;;;;;;20.40;77.29;94741.84;5097003;28;20291;-68
2022/08/25 04:51:56;;;;;;;14.68;9.70;;;;;;;20.43;76.80;94743.81;5096388;28;20247;-68
2022/08/25 04:54:23;;;;;;;12.63;9.45;;;;;;;20.44;76.66;94749.00;5096519;28;20208;-68
2022/08/25 04:56:51;;;;;;;16.83;9.70;;;;;;;20.47;77.31;94752.94;5095865;28;20212;-68
2022/08/25 04:59:25;;;;;;;12.45;9.55;;;;;;;20.49;77.75;94749.72;5095822;28;20204;-68
2022/08/25 05:01:52;;;;;;;14.70;9.68;;;;;;;20.49;77.60;94747.72;5096532;28;20196;-68
2022/08/25 05:04:21;;;;;;;14.07;8.88;;;;;;;20.50;76.78;94751.34;5096757;28;20196;-69
2022/08/25 05:06:50;;;;;;;12.52;8.85;;;;;;;20.50;77.05;94752.13;5095823;28;20211;-68
2022/08/25 05:09:16;;;;;;;14.77;9.27;;;;;;;20.52;76.83;94751.72;5096777;28;20193;-68
2022/08/25 05:11:43;;;;;;;13.20;8.77;;;;;;;20.53;76.62;94751.28;5095984;28;20204;-68
2022/08/25 05:14:14;;;;;;;13.85;8.50;;;;;;;20.55;76.61;94750.84;5096593;28;20216;-69
2022/08/25 05:16:42;;;;;;;9.05;8.02;;;;;;;20.57;76.96;94752.00;5097071;28;20216;-69
2022/08/25 05:19:09;;;;;;;13.93;8.27;;;;;;;20.57;76.74;94749.22;5096031;28;20200;-69
2022/08/25 05:21:38;;;;;;;11.13;8.82;;;;;;;20.58;76.54;94747.19;5097092;28;20173;-70
2022/08/25 05:24:06;;;;;;;12.95;8.02;;;;;;;20.59;76.59;94734.78;5096705;28;20189;-70
2022/08/25 05:26:37;;;;;;;13.18;7.68;;;;;;;20.60;76.04;94739.97;5096088;28;20219;-70
2022/08/25 05:29:06;;;;;;;14.55;7.57;;;;;;;20.63;75.88;94750.31;5095669;28;20199;-71
2022/08/25 05:31:34;;;;;;;8.68;7.82;;;;;;;20.68;76.01;94740.63;5096688;28;20193;-70
2022/08/25 05:34:07;;;;;;;12.07;8.23;;;;;;;20.70;76.01;94740.19;5095790;28;20202;-72
2022/08/25 05:36:34;;;;;;;10.65;7.47;;;;;;;20.74;75.61;94740.94;5096401;28;20208;-70
2022/08/25 05:39:04;;;;;;;11.30;7.05;;;;;;;20.78;75.36;94739.66;5096526;28;20177;-70
2022/08/25 05:41:31;;;;;;;10.23;7.32;;;;;;;20.82;75.48;94739.59;5096099;28;20189;-70
2022/08/25 05:43:59;;;;;;;9.80;7.80;;;;;;;20.85;75.23;94745.13;5095893;28;20181;-70
2022/08/25 05:46:26;;;;;;;13.02;7.50;;;;;;;20.86;75.22;94746.72;5095794;28;20193;-70
2022/08/25 05:48:54;;;;;;;10.73;7.45;;;;;;;20.91;75.04;94743.44;5096288;28;20180;-69
2022/08/25 05:51:23;;;;;;;13.23;7.82;;;;;;;20.94;75.05;94743.78;5095702;28;20310;-69
2022/08/25 05:53:50;;;;;;;16.02;7.57;;;;;;;20.94;74.89;94738.97;5095731;28;20184;-70
2022/08/25 05:56:17;;;;;;;9.20;8.05;;;;;;;20.96;74.39;94747.75;5095151;28;20224;-69
2022/08/25 05:58:45;;;;;;;14.30;8.07;;;;;;;20.97;74.63;94742.94;5095933;28;20184;-69
2022/08/25 06:04:07;;;;;;;12.45;7.80;;;;;;;20.96;74.68;94744.94;5095282;28;20192;-69
2022/08/25 06:06:35;;;;;;;11.52;8.32;;;;;;;21.00;74.37;94744.88;5096628;28;20181;-69
2022/08/25 06:09:03;;;;;;;11.82;7.90;;;;;;;21.02;74.54;94740.41;5095608;28;20197;-70
2022/08/25 06:11:30;;;;;;;11.55;8.48;;;;;;;21.00;74.81;94740.06;5094814;28;20616;-71
2022/08/25 06:13:57;;;;;;;10.18;8.20;;;;;;;21.03;74.89;94755.25;5095044;28;20647;-69
2022/08/25 06:16:25;;;;;;;9.82;7.72;;;;;;;21.03;74.37;94746.84;5096370;28;20204;-69
2022/08/25 06:18:55;;;;;;;11.95;7.72;;;;;;;21.03;74.21;94742.00;5096885;28;20189;-69
2022/08/25 06:21:22;;;;;;;11.32;8.10;;;;;;;21.06;74.57;94751.56;5096104;28;20198;-69
2022/08/25 06:23:50;;;;;;;11.15;7.40;;;;;;;21.05;74.46;94741.56;5094921;28;20231;-69
2022/08/25 06:26:17;;;;;;;12.95;8.60;;;;;;;21.04;74.19;94735.19;5095410;28;20189;-69
2022/08/25 06:28:44;;;;;;;12.88;8.75;;;;;;;21.09;74.49;94739.50;5095946;28;20191;-69
2022/08/25 06:31:11;;;;;;;14.57;9.07;;;;;;;21.11;74.45;94735.03;5095590;28;20192;-69
2022/08/25 06:33:38;;;;;;;11.10;8.60;;;;;;;21.16;74.46;94742.94;5097792;28;20207;-68
2022/08/25 06:36:06;;;;;;;9.38;8.02;;;;;;;21.23;74.19;94744.03;5099822;28;20216;-69
2022/08/25 06:38:33;;;;;;;12.20;8.45;;;;;;;21.27;73.75;94745.56;5099544;28;20505;-68
2022/08/25 06:41:04;;;;;;;10.52;8.23;;;;;;;21.29;73.53;94740.31;5099662;28;20498;-67
2022/08/25 06:43:32;;;;;;;13.38;9.25;;;;;;;21.30;73.82;94744.69;5100518;28;20188;-68
2022/08/25 06:46:01;;;;;;;12.82;8.82;;;;;;;21.31;74.13;94737.06;5099149;28;20207;-69
2022/08/25 06:48:27;;;;;;;11.52;8.23;;;;;;;21.32;73.70;94738.69;5098018;28;20207;-69
2022/08/25 06:50:57;;;;;;;11.73;8.73;;;;;;;21.36;73.77;94736.63;5099186;28;20239;-69
2022/08/25 06:53:24;;;;;;;10.73;8.35;;;;;;;21.38;73.89;94745.38;5099934;28;20184;-68
2022/08/25 06:55:56;;;;;;;11.95;8.00;;;;;;;21.43;73.60;94741.31;5099969;28;20192;-68
2022/08/25 06:58:25;;;;;;;13.18;9.00;;;;;;;21.48;73.40;94746.41;5099950;28;20192;-68
2022/08/25 07:00:52;;;;;;;10.57;8.27;;;;;;;21.51;73.37;94739.94;5099312;28;20203;-69
2022/08/25 07:03:23;;;;;;;11.65;8.27;;;;;;;21.53;72.77;94745.88;5099371;28;20205;-67
2022/08/25 07:05:51;;;;;;;13.48;7.88;;;;;;;21.55;72.55;94746.25;5099126;28;20184;-67
2022/08/25 07:08:20;;;;;;;10.18;7.63;;;;;;;21.57;72.57;94741.81;5099635;28;20200;-68
2022/08/25 07:10:47;;;;;;;8.95;7.82;;;;;;;21.65;72.84;94736.03;5099084;28;20226;-68
2022/08/25 07:13:15;;;;;;;9.98;8.00;;;;;;;21.70;72.76;94741.13;5098991;28;20199;-67
2022/08/25 07:15:44;;;;;;;14.02;8.35;;;;;;;21.73;72.76;94735.44;5099587;28;20189;-68
2022/08/25 07:18:11;;;;;;;9.32;7.90;;;;;;;21.76;72.74;94737.38;5099364;28;20261;-68
2022/08/25 07:20:38;;;;;;;9.43;7.93;;;;;;;21.83;72.80;94739.25;5098883;28;20204;-68
2022/08/25 07:23:07;;;;;;;9.02;7.07;;;;;;;21.86;73.46;94742.00;5099424;28;20191;-70
2022/08/25 07:25:35;;;;;;;13.07;8.25;;;;;;;21.87;73.19;94740.75;5099952;28;20196;-68
2022/08/25 07:28:05;;;;;;;12.52;7.57;;;;;;;21.88;72.39;94733.91;5098763;28;20192;-69
2022/08/25 07:30:32;;;;;;;8.25;7.40;;;;;;;21.92;71.98;94733.03;5099432;28;20207;-69
2022/08/25 07:33:03;;;;;;;10.70;7.55;;;;;;;21.96;71.99;94736.56;5098726;28;20211;-69
2022/08/25 07:35:31;;;;;;;10.88;7.70;;;;;;;21.99;72.17;94736.47;5099465;28;20517;-69
2022/08/25 07:37:59;;;;;;;12.00;7.68;;;;;;;22.02;72.05;94729.22;5098841;28;20216;-69
2022/08/25 07:40:30;;;;;;;11.80;7.53;;;;;;;22.05;71.85;94739.56;5098522;28;20204;-69
2022/08/25 07:43:01;;;;;;;10.68;7.60;;;;;;;22.08;71.31;94738.72;5098649;28;20271;-68
2022/08/25 07:45:30;;;;;;;12.15;7.82;;;;;;;22.08;70.91;94736.69;5098759;28;20246;-69
2022/08/25 07:47:57;;;;;;;11.07;8.18;;;;;;;22.11;71.02;94747.06;5098556;28;20559;-69
2022/08/25 07:50:25;;;;;;;14.10;7.90;;;;;;;22.10;71.16;94739.84;5099648;28;20248;-69
2022/08/25 07:52:54;;;;;;;14.00;8.07;;;;;;;22.12;71.05;94739.41;5098718;28;20207;-68
2022/08/25 07:55:22;;;;;;;10.10;7.93;;;;;;;22.14;70.96;94750.22;5098248;28;20283;-69
2022/08/25 07:57:50;;;;;;;12.10;7.28;;;;;;;22.14;71.17;94742.59;5098565;28;20204;-69
2022/08/25 08:00:17;;;;;;;9.30;7.72;;;;;;;22.14;70.79;94736.16;5098542;28;20192;-69
2022/08/25 08:02:44;;;;;;;14.32;7.28;;;;;;;22.18;70.58;94734.09;5097350;28;20211;-68
2022/08/25 08:05:15;;;;;;;10.50;7.50;;;;;;;22.20;70.75;94731.66;5098206;28;20187;-69
2022/08/25 08:07:46;;;;;;;9.20;7.53;;;;;;;22.25;70.65;94736.75;5098247;28;20220;-69
2022/08/25 08:10:14;;;;;;;12.70;8.20;;;;;;;22.28;69.80;94733.06;5097298;28;20184;-69
2022/08/25 08:12:41;;;;;;;11.45;7.20;;;;;;;22.32;70.32;94734.53;5097585;28;20188;-68
2022/08/25 08:15:09;;;;;;;14.20;7.80;;;;;;;22.34;70.14;94736.94;5097205;28;20200;-70
2022/08/25 08:17:36;;;;;;;13.88;7.53;;;;;;;22.35;69.29;94722.44;5098427;28;20205;-69
2022/08/25 08:20:07;;;;;;;12.85;7.70;;;;;;;22.36;68.44;94728.84;5097463;28;20574;-69
2022/08/25 08:22:35;;;;;;;11.73;7.20;;;;;;;22.39;68.84;94718.75;5098392;28;20223;-69
2022/08/25 08:25:04;;;;;;;11.00;6.95;;;;;;;22.39;69.38;94716.72;5096957;28;20204;-69
2022/08/25 08:27:32;;;;;;;11.35;7.10;;;;;;;22.40;69.12;94709.09;5096958;28;20196;-69
2022/08/25 08:30:03;;;;;;;10.98;8.02;;;;;;;22.43;69.44;94711.03;5096965;28;20246;-69
2022/08/25 08:32:30;;;;;;;11.38;7.63;;;;;;;22.47;69.35;94712.50;5097551;28;20250;-70
2022/08/25 08:34:57;;;;;;;12.32;7.53;;;;;;;22.55;69.46;94715.97;5097443;28;20188;-71
2022/08/25 08:37:24;;;;;;;13.18;7.80;;;;;;;22.58;69.98;94706.63;5097237;28;20495;-71
2022/08/25 08:39:51;;;;;;;15.88;8.25;;;;;;;22.64;70.03;94710.50;5097195;28;20191;-70
2022/08/25 08:42:35;;;;;;;10.40;7.45;;;;;;;22.74;69.67;94709.44;5096875;28;20222;-71
2022/08/25 08:45:29;;;;;;;11.05;6.88;;;;;;;22.90;69.17;94705.03;5097286;28;20184;-70
2022/08/25 08:48:20;;;;;;;8.80;7.40;;;;;;;23.04;68.42;94708.28;5096763;28;20216;-69
2022/08/25 08:50:56;;;;;;;11.35;7.05;;;;;;;23.20;69.43;94706.66;5095850;28;20232;-71
2022/08/25 08:53:27;;;;;;;11.45;8.07;;;;;;;23.32;69.66;94702.34;5096196;28;20203;-69
2022/08/25 08:55:59;;;;;;;11.43;6.95;;;;;;;23.41;67.35;94703.25;5096251;28;20207;-68
2022/08/25 08:58:33;;;;;;;15.55;7.43;;;;;;;23.50;67.73;94697.78;5096147;28;20273;-68
2022/08/25 09:01:00;;;;;;;10.65;6.80;;;;;;;23.61;66.52;94696.69;5096098;28;20203;-68
2022/08/25 09:03:34;;;;;;;14.85;6.97;;;;;;;23.68;66.08;94693.69;5097232;28;20185;-70
2022/08/25 09:06:06;;;;;;;17.17;6.57;;;;;;;23.75;66.42;94699.09;5096976;28;20207;-70
2022/08/25 09:08:33;;;;;;;14.85;7.70;;;;;;;23.84;65.99;94690.00;5096283;28;20200;-71
2022/08/25 09:11:06;;;;;;;12.35;6.70;;;;;;;23.92;64.91;94688.53;5095834;28;20203;-73
2022/08/25 09:13:44;;;;;;;11.50;6.20;;;;;;;23.92;63.57;94692.13;5096304;28;20193;-71
2022/08/25 09:19:13;;;;;;;13.88;7.50;;;;;;;23.98;65.02;94690.34;5096338;28;20549;-70
2022/08/25 09:21:47;;;;;;;12.02;6.35;;;;;;;24.07;62.73;94691.69;5096007;28;20259;-70
2022/08/25 09:24:26;;;;;;;10.60;6.28;;;;;;;24.11;63.92;94693.19;5096619;28;20204;-70
2022/08/25 09:27:02;;;;;;;15.88;6.30;;;;;;;24.09;62.01;94687.19;5095510;28;20192;-70
2022/08/25 09:29:49;;;;;;;13.63;6.32;;;;;;;24.09;62.50;94683.59;5096351;28;20180;-70
2022/08/25 09:32:16;;;;;;;17.17;6.30;;;;;;;24.00;61.84;94687.06;5096899;28;20196;-71
2022/08/25 09:34:44;;;;;;;12.65;5.75;;;;;;;23.90;61.35;94689.00;5095669;28;20203;-71
2022/08/25 09:37:11;;;;;;;19.95;6.88;;;;;;;23.86;61.02;94681.91;5095484;28;20212;-70
2022/08/25 09:39:40;;;;;;;12.57;6.00;;;;;;;23.86;62.56;94682.69;5097135;28;20196;-69
2022/08/25 09:42:07;;;;;;;11.00;5.82;;;;;;;23.86;61.52;94679.88;5096738;28;20192;-69
2022/08/25 09:44:43;;;;;;;10.35;6.03;;;;;;;23.87;61.82;94683.47;5095985;28;20200;-71
2022/08/25 09:47:20;;;;;;;17.70;6.13;;;;;;;23.87;61.30;94680.66;5095061;28;20203;-68
2022/08/25 09:49:49;;;;;;;17.38;5.78;;;;;;;23.85;61.28;94672.63;5095223;28;20192;-68
2022/08/25 09:52:25;;;;;;;13.18;5.65;;;;;;;23.81;59.08;94676.81;5095277;28;20196;-68
2022/08/25 09:54:54;;;;;;;15.85;6.68;;;;;;;23.72;58.90;94680.28;5095744;28;20199;-68
2022/08/25 09:57:35;;;;;;;11.55;5.72;;;;;;;23.67;60.63;94683.66;5094742;28;20554;-68
2022/08/25 10:00:17;;;;;;;13.07;5.60;;;;;;;23.65;60.73;94683.28;5094589;28;20212;-69
2022/08/25 10:02:46;;;;;;;13.25;5.93;;;;;;;23.65;60.66;94686.88;5095300;28;20207;-69
2022/08/25 10:05:22;;;;;;;14.00;5.75;;;;;;;23.64;59.95;94682.50;5095838;28;20191;-72
2022/08/25 10:07:53;;;;;;;15.75;6.50;;;;;;;23.69;60.32;94681.97;5094769;28;20187;-70
2022/08/25 10:10:28;;;;;;;8.35;5.38;;;;;;;23.81;61.09;94683.22;5096461;28;20192;-69
2022/08/25 10:12:58;;;;;;;11.77;5.95;;;;;;;23.99;61.47;94674.22;5078655;28;20191;-72
2022/08/25 10:15:29;;;;;;;14.65;4.88;;;;;;;24.10;58.79;94680.31;5094652;28;20202;-73
2022/08/25 10:17:58;;;;;;;13.52;5.35;;;;;;;24.21;58.56;94680.75;5095663;28;20241;-72
2022/08/25 10:20:27;;;;;;;11.68;5.78;;;;;;;24.36;58.52;94667.00;5094911;28;20242;-71
2022/08/25 10:23:10;;;;;;;9.40;5.03;;;;;;;24.45;56.88;94672.00;5094734;28;20534;-71
2022/08/25 10:25:41;;;;;;;12.88;5.72;;;;;;;24.40;58.33;94673.38;5094721;28;20199;-71
2022/08/25 10:28:12;;;;;;;12.63;4.80;;;;;;;24.47;57.78;94669.50;5095549;28;20199;-72
2022/08/25 10:30:51;;;;;;;9.10;4.95;;;;;;;24.63;55.72;94663.72;5095319;28;20241;-71
2022/08/25 10:33:24;;;;;;;13.73;5.18;;;;;;;24.74;54.32;94661.34;5095911;28;20208;-69
2022/08/25 10:35:58;;;;;;;15.35;5.35;;;;;;;24.83;54.38;94657.81;5095815;28;20203;-69
2022/08/25 10:38:38;;;;;;;10.13;4.53;;;;;;;24.85;54.32;94655.31;5095819;28;20647;-69
2022/08/25 10:41:16;;;;;;;11.93;4.57;;;;;;;24.85;53.15;94658.16;5095931;28;20200;-69
2022/08/25 10:43:47;;;;;;;8.85;4.47;;;;;;;24.85;52.02;94657.38;5096086;28;20185;-70
2022/08/25 10:46:17;;;;;;;10.50;4.32;;;;;;;24.77;53.09;94651.19;5095924;28;20195;-71
2022/08/25 10:48:59;;;;;;;14.40;4.20;;;;;;;24.76;53.46;94660.09;5094640;28;20200;-69
2022/08/25 10:51:41;;;;;;;7.70;4.68;;;;;;;24.73;52.57;94647.69;5077812;28;20228;-69
2022/08/25 10:54:19;;;;;;;7.07;3.55;;;;;;;24.69;53.06;94649.84;5094194;28;20199;-69
2022/08/25 10:56:52;;;;;;;7.15;4.20;;;;;;;24.72;53.29;94646.09;5094737;28;20604;-69
2022/08/25 10:59:47;;;;;;;13.15;4.68;;;;;;;24.76;53.98;94640.34;5094915;28;20211;-70
2022/08/25 11:02:46;;;;;;;9.73;3.88;;;;;;;24.74;53.73;94646.44;5094723;28;20388;-70
2022/08/25 11:05:17;;;;;;;13.00;4.45;;;;;;;24.70;52.89;94643.75;5095382;28;20196;-71
2022/08/25 11:07:50;;;;;;;11.00;4.50;;;;;;;24.71;52.38;94641.72;5096183;28;20189;-69
2022/08/25 11:10:20;;;;;;;10.82;4.45;;;;;;;24.66;52.33;94645.13;5095541;28;20200;-70
2022/08/25 11:12:52;;;;;;;8.02;3.90;;;;;;;24.73;52.91;94637.22;5096049;28;20181;-70
2022/08/25 11:15:21;;;;;;;9.98;4.45;;;;;;;24.88;52.53;94631.06;5096096;28;20615;-70
2022/08/25 11:17:53;;;;;;;7.45;4.20;;;;;;;25.02;51.78;94622.09;5095146;28;20216;-70
2022/08/25 11:20:27;;;;;;;11.23;5.15;;;;;;;25.03;52.38;94625.72;5098666;28;20201;-70
2022/08/25 11:23:10;;;;;;;14.43;4.22;;;;;;;24.96;51.66;94627.53;5099246;28;20313;-69
2022/08/25 11:25:39;;;;;;;9.18;4.63;;;;;;;24.93;51.63;94622.81;5098430;28;20196;-69
2022/08/25 11:28:10;;;;;;;8.55;4.20;;;;;;;24.95;51.87;94620.31;5098991;28;20188;-68
2022/08/25 11:30:38;;;;;;;12.80;4.80;;;;;;;24.93;51.06;94611.50;5097970;28;20199;-70
2022/08/25 11:33:07;;;;;;;13.73;4.43;;;;;;;24.90;51.14;94606.00;5099608;28;20196;-69
2022/08/25 11:35:38;;;;;;;7.97;4.20;;;;;;;24.91;51.40;94611.19;5099519;28;20195;-69
2022/08/25 11:38:19;;;;;;;10.38;4.43;;;;;;;24.87;51.88;94610.50;5098932;28;20231;-69
2022/08/25 11:40:54;;;;;;;12.27;5.03;;;;;;;24.79;52.56;94606.38;5099219;28;20187;-69
2022/08/25 11:43:44;;;;;;;12.10;4.47;;;;;;;24.83;53.41;94603.44;5099432;28;20184;-69
2022/08/25 11:46:32;;;;;;;8.55;4.20;;;;;;;24.81;52.83;94591.84;5098119;28;20193;-70
2022/08/25 11:49:20;;;;;;;8.23;4.38;;;;;;;24.86;54.04;94597.66;5098906;28;20227;-69
2022/08/25 11:51:49;;;;;;;7.57;3.90;;;;;;;25.01;51.84;94597.94;5097986;28;20224;-69